Time;durP1;ratioP1;P1;durP2;ratioP2;P2;SDS_P1;SDS_P2;PMS_P1;PMS_P2;Temp;Humidity;BMP_temperature;BMP_pressure;BME280_temperature;BME280_humidity;BME280_pressure;Samples;Min_cycle;Max_cycle;Signal;HPM_P1;HPM_P2
2023/01/18 00:02:24;;;;;;;4.20;2.42;;;;;;;;;;5099752;28;20121;-75
2023/01/18 00:05:10;;;;;;;7.60;2.58;;;;;;;;;;5114569;28;20020;-75
2023/01/18 00:07:55;;;;;;;4.97;2.45;;;;;;;;;;5114391;28;20039;-74
2023/01/18 00:10:41;;;;;;;9.07;2.70;;;;;;;;;;5115822;28;20352;-74
2023/01/18 00:13:27;;;;;;;4.50;2.55;;;;;;;;;;5118637;28;20012;-75
2023/01/18 00:16:13;;;;;;;7.15;2.70;;;;;;;;;;5117413;28;20046;-75
2023/01/18 00:18:59;;;;;;;4.47;2.65;;;;;;;;;;5117668;28;20016;-75
2023/01/18 00:21:45;;;;;;;6.70;2.55;;;;;;;;;;5118249;28;20038;-74
2023/01/18 00:24:30;;;;;;;6.40;2.70;;;;;;;;;;5117470;28;20019;-74
2023/01/18 00:27:16;;;;;;;5.28;2.38;;;;;;;;;;5117752;28;20344;-74
2023/01/18 00:30:05;;;;;;;6.93;2.67;;;;;;;;;;5117361;28;20417;-75
2023/01/18 00:32:55;;;;;;;7.03;2.63;;;;;;;;;;5117025;28;20020;-74
2023/01/18 00:35:40;;;;;;;6.05;2.45;;;;;;;;;;5117422;28;20020;-73
2023/01/18 00:38:26;;;;;;;7.20;2.50;;;;;;;;;;5116483;28;20160;-74
2023/01/18 00:41:12;;;;;;;4.18;2.35;;;;;;;;;;5101662;28;20035;-74
2023/01/18 00:43:57;;;;;;;7.40;2.58;;;;;;;;;;5117538;28;20057;-75
2023/01/18 00:46:43;;;;;;;5.93;2.42;;;;;;;;;;5117009;28;20019;-75
2023/01/18 00:49:29;;;;;;;8.40;2.47;;;;;;;;;;5117240;28;20019;-73
2023/01/18 00:52:14;;;;;;;4.63;2.30;;;;;;;;;;5102609;28;20483;-74
2023/01/18 00:55:03;;;;;;;5.30;2.50;;;;;;;;;;5116998;28;20016;-74
2023/01/18 00:57:49;;;;;;;5.95;2.40;;;;;;;;;;5102576;28;20443;-75
2023/01/18 01:00:34;;;;;;;6.93;2.60;;;;;;;;;;5116169;28;20058;-74
2023/01/18 01:03:21;;;;;;;6.75;2.67;;;;;;;;;;5116875;28;20490;-74
2023/01/18 01:09:20;;;;;;;5.88;2.30;;;;;;;;;;5116774;28;20023;-74
2023/01/18 01:27:27;;;;;;;5.22;2.20;;;;;;;;;;5118080;28;20024;-74
2023/01/18 01:30:13;;;;;;;7.30;2.60;;;;;;;;;;5117880;28;20019;-74
2023/01/18 01:32:59;;;;;;;8.32;2.70;;;;;;;;;;5116894;28;20016;-74
2023/01/18 01:35:44;;;;;;;12.15;2.63;;;;;;;;;;5118446;28;20022;-75
2023/01/18 01:38:30;;;;;;;6.72;2.45;;;;;;;;;;5116178;28;20051;-73
2023/01/18 01:41:17;;;;;;;4.55;2.50;;;;;;;;;;5115414;28;20435;-75
2023/01/18 01:44:32;;;;;;;6.78;2.80;;;;;;;;;;5116320;28;20028;-74
2023/01/18 01:47:31;;;;;;;9.57;2.80;;;;;;;;;;5115908;28;20034;-74
2023/01/18 01:50:17;;;;;;;11.60;2.90;;;;;;;;;;5116031;28;20443;-75
2023/01/18 01:53:02;;;;;;;8.32;3.10;;;;;;;;;;5116089;28;20023;-76
2023/01/18 01:55:48;;;;;;;7.43;2.58;;;;;;;;;;5116094;28;20015;-74
2023/01/18 01:58:34;;;;;;;4.80;2.40;;;;;;;;;;5116110;28;20016;-74
2023/01/18 02:01:20;;;;;;;7.35;2.70;;;;;;;;;;5114276;28;20047;-75
2023/01/18 02:04:06;;;;;;;7.28;2.50;;;;;;;;;;5115717;28;20012;-74
2023/01/18 02:06:51;;;;;;;7.22;2.67;;;;;;;;;;5100833;28;20336;-74
2023/01/18 02:09:37;;;;;;;8.40;2.80;;;;;;;;;;5115380;28;20098;-74
2023/01/18 02:12:24;;;;;;;6.80;2.60;;;;;;;;;;5115644;28;20051;-75
2023/01/18 02:15:10;;;;;;;8.13;2.70;;;;;;;;;;5116032;28;20023;-73
2023/01/18 02:18:07;;;;;;;8.50;3.08;;;;;;;;;;5101322;28;20077;-74
2023/01/18 02:21:22;;;;;;;8.07;2.90;;;;;;;;;;5115739;28;20015;-74
2023/01/18 02:24:26;;;;;;;8.68;2.70;;;;;;;;;;5108442;28;20120;-75
2023/01/18 02:27:20;;;;;;;8.00;2.78;;;;;;;;;;5100640;28;20016;-74
2023/01/18 02:30:20;;;;;;;8.45;2.78;;;;;;;;;;5101739;28;20026;-71
2023/01/18 02:33:09;;;;;;;11.65;2.88;;;;;;;;;;5114979;28;20474;-73
2023/01/18 02:35:55;;;;;;;10.68;2.75;;;;;;;;;;5113936;28;20028;-75
2023/01/18 02:38:43;;;;;;;14.45;3.55;;;;;;;;;;5101195;28;20103;-74
2023/01/18 02:47:50;;;;;;;7.03;2.95;;;;;;;;;;5115786;28;20024;-74
2023/01/18 02:50:36;;;;;;;11.27;2.95;;;;;;;;;;5100304;28;20106;-74
2023/01/18 02:53:22;;;;;;;10.70;3.00;;;;;;;;;;5100343;28;20023;-74
2023/01/18 02:56:11;;;;;;;7.78;2.65;;;;;;;;;;5115270;28;20024;-73
2023/01/18 02:59:06;;;;;;;8.98;2.50;;;;;;;;;;5099721;28;20027;-74
2023/01/18 03:02:01;;;;;;;13.98;3.20;;;;;;;;;;5115014;28;20361;-74
2023/01/18 03:04:54;;;;;;;10.80;2.83;;;;;;;;;;5114298;28;20106;-73
2023/01/18 03:07:47;;;;;;;8.50;3.10;;;;;;;;;;5114372;28;20023;-73
2023/01/18 03:10:34;;;;;;;11.07;2.55;;;;;;;;;;5127646;28;20057;-72
2023/01/18 03:13:24;;;;;;;6.97;2.53;;;;;;;;;;5136282;28;20101;-72
2023/01/18 03:16:17;;;;;;;11.70;2.70;;;;;;;;;;5119143;28;20023;-73
2023/01/18 03:19:04;;;;;;;12.43;2.58;;;;;;;;;;5115192;28;20031;-74
2023/01/18 03:21:50;;;;;;;8.70;2.88;;;;;;;;;;5100429;28;20106;-74
2023/01/18 03:24:40;;;;;;;9.30;2.90;;;;;;;;;;5114780;28;20034;-73
2023/01/18 03:33:43;;;;;;;13.05;2.90;;;;;;;;;;5114990;28;20031;-74
2023/01/18 03:36:34;;;;;;;13.98;3.70;;;;;;;;;;5115127;28;20039;-74
2023/01/18 03:39:19;;;;;;;9.80;2.78;;;;;;;;;;5114168;28;20016;-74
2023/01/18 03:42:07;;;;;;;10.48;2.90;;;;;;;;;;5114234;28;20077;-73
2023/01/18 03:45:12;;;;;;;10.45;2.58;;;;;;;;;;5115131;28;20019;-73
2023/01/18 03:47:58;;;;;;;9.00;2.60;;;;;;;;;;5118478;28;20098;-75
2023/01/18 03:50:52;;;;;;;13.55;2.50;;;;;;;;;;5118989;28;20508;-74
2023/01/18 03:53:44;;;;;;;8.55;2.35;;;;;;;;;;5118661;28;20027;-74
2023/01/18 03:56:36;;;;;;;8.73;2.78;;;;;;;;;;5118731;28;20035;-73
2023/01/18 03:59:21;;;;;;;16.50;2.97;;;;;;;;;;5117860;28;20023;-74
2023/01/18 04:02:07;;;;;;;8.68;2.60;;;;;;;;;;5116502;28;20048;-74
2023/01/18 04:04:56;;;;;;;7.25;2.45;;;;;;;;;;5117871;28;20367;-74
2023/01/18 04:07:42;;;;;;;7.45;2.40;;;;;;;;;;5119510;27;20019;-73
2023/01/18 04:10:27;;;;;;;14.77;2.78;;;;;;;;;;5103940;28;20337;-74
2023/01/18 04:13:13;;;;;;;9.02;2.70;;;;;;;;;;5118179;28;20059;-74
2023/01/18 04:15:59;;;;;;;9.60;3.13;;;;;;;;;;5117950;28;20023;-74
2023/01/18 04:18:44;;;;;;;11.15;2.60;;;;;;;;;;5120057;28;20393;-74
2023/01/18 04:21:30;;;;;;;7.78;2.70;;;;;;;;;;5118461;28;20023;-73
2023/01/18 04:24:16;;;;;;;6.93;2.80;;;;;;;;;;5132244;28;20049;-74
2023/01/18 04:27:02;;;;;;;11.88;3.10;;;;;;;;;;5126055;28;20024;-75
2023/01/18 04:29:47;;;;;;;7.60;2.72;;;;;;;;;;5118397;28;20027;-74
2023/01/18 04:32:33;;;;;;;12.25;3.00;;;;;;;;;;5117553;28;20024;-74
2023/01/18 04:35:19;;;;;;;9.63;2.97;;;;;;;;;;5117334;28;20035;-74
2023/01/18 04:38:04;;;;;;;9.55;2.75;;;;;;;;;;5117737;28;20494;-74
2023/01/18 04:40:50;;;;;;;8.20;2.65;;;;;;;;;;5117334;28;20072;-75
2023/01/18 04:43:36;;;;;;;9.73;3.15;;;;;;;;;;5117950;28;20027;-74
2023/01/18 04:46:21;;;;;;;7.22;2.60;;;;;;;;;;5117241;28;20020;-74
2023/01/18 04:49:10;;;;;;;9.52;3.00;;;;;;;;;;5117743;28;20079;-74
2023/01/18 04:51:56;;;;;;;8.25;3.20;;;;;;;;;;5103128;28;20020;-74
2023/01/18 04:54:42;;;;;;;7.38;2.88;;;;;;;;;;5119566;28;20427;-73
2023/01/18 04:57:28;;;;;;;8.57;3.15;;;;;;;;;;5119600;28;20115;-74
2023/01/18 05:00:16;;;;;;;13.73;3.13;;;;;;;;;;5122874;28;20020;-73
2023/01/18 05:03:01;;;;;;;9.15;2.97;;;;;;;;;;5102832;28;20035;-73
2023/01/18 05:05:47;;;;;;;8.57;3.33;;;;;;;;;;5104569;28;20035;-72
2023/01/18 05:08:33;;;;;;;13.00;3.00;;;;;;;;;;5102246;28;20076;-74
2023/01/18 05:11:19;;;;;;;12.27;3.15;;;;;;;;;;5102050;28;20020;-73
2023/01/18 05:14:05;;;;;;;8.07;3.05;;;;;;;;;;5117104;28;20038;-72
2023/01/18 05:16:51;;;;;;;9.25;2.63;;;;;;;;;;5102169;28;20034;-74
2023/01/18 05:19:37;;;;;;;12.70;3.30;;;;;;;;;;5116120;28;20124;-74
2023/01/18 05:22:24;;;;;;;11.32;3.20;;;;;;;;;;5108221;28;20047;-74
2023/01/18 05:25:09;;;;;;;9.50;2.67;;;;;;;;;;5131606;28;20035;-72
2023/01/18 05:27:55;;;;;;;16.08;3.50;;;;;;;;;;5120369;28;20023;-72
2023/01/18 05:30:41;;;;;;;8.98;3.05;;;;;;;;;;5117681;28;20034;-72
2023/01/18 05:33:27;;;;;;;7.68;3.25;;;;;;;;;;5117511;28;20035;-72
2023/01/18 05:36:13;;;;;;;12.68;3.60;;;;;;;;;;5102372;28;20041;-73
2023/01/18 05:38:58;;;;;;;9.45;3.28;;;;;;;;;;5116843;28;20027;-71
2023/01/18 05:41:44;;;;;;;10.55;3.47;;;;;;;;;;5116020;28;20016;-73
2023/01/18 05:44:30;;;;;;;10.57;3.25;;;;;;;;;;5116096;28;20045;-72
2023/01/18 05:47:15;;;;;;;11.68;3.40;;;;;;;;;;5116231;28;20181;-71
2023/01/18 05:50:01;;;;;;;11.40;3.22;;;;;;;;;;5115663;28;20023;-72
2023/01/18 05:52:46;;;;;;;10.60;3.50;;;;;;;;;;5101651;28;20012;-73
2023/01/18 05:55:32;;;;;;;14.77;3.45;;;;;;;;;;5115873;28;20407;-72
2023/01/18 05:58:17;;;;;;;9.48;2.90;;;;;;;;;;5116489;28;20102;-72
2023/01/18 06:01:03;;;;;;;14.05;2.85;;;;;;;;;;5115384;28;20047;-73
2023/01/18 06:03:49;;;;;;;11.10;2.95;;;;;;;;;;5116035;28;20015;-71
2023/01/18 06:06:34;;;;;;;10.65;2.60;;;;;;;;;;5115718;28;20100;-72
2023/01/18 06:09:20;;;;;;;12.30;3.17;;;;;;;;;;5115080;28;20015;-73
2023/01/18 06:12:05;;;;;;;9.60;3.10;;;;;;;;;;5114596;28;20077;-71
2023/01/18 06:14:51;;;;;;;9.55;3.05;;;;;;;;;;5116212;28;20008;-72
2023/01/18 06:17:37;;;;;;;14.20;3.45;;;;;;;;;;5101633;28;20431;-73
2023/01/18 06:20:23;;;;;;;10.73;2.85;;;;;;;;;;5115419;28;20038;-71
2023/01/18 06:23:09;;;;;;;9.48;3.30;;;;;;;;;;5114787;28;20016;-72
2023/01/18 06:25:54;;;;;;;12.40;2.85;;;;;;;;;;5100355;28;20459;-72
2023/01/18 06:28:40;;;;;;;11.07;2.80;;;;;;;;;;5115028;28;20427;-74
2023/01/18 06:31:26;;;;;;;17.95;3.55;;;;;;;;;;5114879;28;20032;-72
2023/01/18 06:34:11;;;;;;;12.73;3.42;;;;;;;;;;5100776;28;20071;-73
2023/01/18 06:36:57;;;;;;;9.38;2.90;;;;;;;;;;5103325;28;20016;-72
2023/01/18 06:39:42;;;;;;;11.35;3.00;;;;;;;;;;5115199;28;20019;-73
2023/01/18 06:42:28;;;;;;;10.80;2.90;;;;;;;;;;5101066;28;20443;-74
2023/01/18 06:45:15;;;;;;;15.10;3.30;;;;;;;;;;5115423;28;20027;-73
2023/01/18 06:48:00;;;;;;;8.82;2.90;;;;;;;;;;5115447;28;20039;-73
2023/01/18 06:50:47;;;;;;;11.35;2.72;;;;;;;;;;5100807;28;20509;-73
2023/01/18 06:53:32;;;;;;;13.10;2.55;;;;;;;;;;5116075;28;20371;-72
2023/01/18 06:56:18;;;;;;;9.48;2.70;;;;;;;;;;5115949;28;20019;-71
2023/01/18 06:59:03;;;;;;;14.07;3.00;;;;;;;;;;5116380;28;20019;-73
2023/01/18 07:01:49;;;;;;;11.27;2.75;;;;;;;;;;5102123;28;20071;-72
2023/01/18 07:04:41;;;;;;;11.77;2.63;;;;;;;;;;5116496;28;20023;-71
2023/01/18 07:07:27;;;;;;;15.23;3.20;;;;;;;;;;5102270;28;20036;-73
2023/01/18 07:10:12;;;;;;;11.00;3.42;;;;;;;;;;5116649;28;20144;-75
2023/01/18 07:12:58;;;;;;;17.30;3.47;;;;;;;;;;5115060;28;20015;-73
2023/01/18 07:15:44;;;;;;;11.48;2.60;;;;;;;;;;5101281;28;20024;-72
2023/01/18 07:18:29;;;;;;;10.40;2.63;;;;;;;;;;5115853;28;20026;-72
2023/01/18 07:21:16;;;;;;;14.15;3.28;;;;;;;;;;5118492;28;20049;-73
2023/01/18 07:24:01;;;;;;;11.88;3.13;;;;;;;;;;5119621;28;20041;-72
2023/01/18 07:26:47;;;;;;;12.88;2.80;;;;;;;;;;5118565;28;20019;-72
2023/01/18 07:29:33;;;;;;;16.23;3.97;;;;;;;;;;5119063;28;20081;-72
2023/01/18 07:32:18;;;;;;;9.70;2.78;;;;;;;;;;5118499;28;20066;-72
2023/01/18 07:35:04;;;;;;;12.75;3.03;;;;;;;;;;5118345;28;20020;-73
2023/01/18 07:37:51;;;;;;;13.40;3.30;;;;;;;;;;5105093;28;20030;-72
2023/01/18 07:40:37;;;;;;;13.00;3.00;;;;;;;;;;5104679;28;20456;-73
2023/01/18 07:43:23;;;;;;;12.55;2.88;;;;;;;;;;5118158;28;20076;-72
2023/01/18 07:46:10;;;;;;;13.98;2.95;;;;;;;;;;5118085;28;20016;-74
2023/01/18 07:48:56;;;;;;;11.18;2.88;;;;;;;;;;5119278;28;20023;-72
2023/01/18 07:51:41;;;;;;;10.57;3.33;;;;;;;;;;5117509;28;20031;-72
2023/01/18 07:54:27;;;;;;;17.75;3.38;;;;;;;;;;5118589;28;20011;-71
2023/01/18 07:57:12;;;;;;;8.77;2.90;;;;;;;;;;5104138;28;20027;-71
2023/01/18 07:59:58;;;;;;;10.73;2.70;;;;;;;;;;5103778;28;20011;-73
2023/01/18 08:02:44;;;;;;;15.45;3.25;;;;;;;;;;5103918;28;20042;-73
2023/01/18 08:05:30;;;;;;;15.35;3.47;;;;;;;;;;5117795;28;20038;-72
2023/01/18 08:08:16;;;;;;;14.27;3.30;;;;;;;;;;5103809;28;20043;-73
2023/01/18 08:11:03;;;;;;;12.63;3.08;;;;;;;;;;5117801;28;20367;-73
2023/01/18 08:13:51;;;;;;;13.18;3.05;;;;;;;;;;5118182;28;20027;-71
2023/01/18 08:16:36;;;;;;;13.70;2.83;;;;;;;;;;5118047;28;20028;-73
2023/01/18 08:19:22;;;;;;;9.02;2.80;;;;;;;;;;5118379;28;20104;-72
2023/01/18 08:22:08;;;;;;;12.50;3.00;;;;;;;;;;5118754;28;20079;-72
2023/01/18 08:24:53;;;;;;;14.82;3.20;;;;;;;;;;5117847;28;20023;-72
2023/01/18 08:27:39;;;;;;;14.20;2.92;;;;;;;;;;5103397;28;20023;-73
2023/01/18 08:30:29;;;;;;;10.02;3.15;;;;;;;;;;5116758;28;20043;-73
2023/01/18 08:33:15;;;;;;;16.27;3.28;;;;;;;;;;5117047;28;20077;-72
2023/01/18 08:36:00;;;;;;;13.98;3.78;;;;;;;;;;5119122;27;20179;-73
2023/01/18 08:38:49;;;;;;;10.55;3.08;;;;;;;;;;5117654;28;20035;-73
2023/01/18 08:41:35;;;;;;;13.48;4.32;;;;;;;;;;5117201;28;20375;-72
2023/01/18 08:44:23;;;;;;;13.40;3.63;;;;;;;;;;5103407;28;20111;-74
2023/01/18 08:47:09;;;;;;;15.27;3.15;;;;;;;;;;5100873;28;20062;-71
2023/01/18 08:49:54;;;;;;;18.83;3.63;;;;;;;;;;5117357;28;20051;-71
2023/01/18 08:52:40;;;;;;;11.30;2.85;;;;;;;;;;5117857;28;20023;-73
2023/01/18 08:55:27;;;;;;;13.38;3.17;;;;;;;;;;5117458;28;20020;-72
2023/01/18 08:58:12;;;;;;;10.82;2.80;;;;;;;;;;5117357;28;20019;-73
2023/01/18 09:00:58;;;;;;;21.33;3.53;;;;;;;;;;5117935;28;20055;-72
2023/01/18 09:03:43;;;;;;;13.90;3.08;;;;;;;;;;5117351;28;20020;-73
2023/01/18 09:06:30;;;;;;;10.65;2.97;;;;;;;;;;5117110;28;20030;-73
2023/01/18 09:09:16;;;;;;;13.18;6.10;;;;;;;;;;5117466;28;20023;-73
2023/01/18 09:12:02;;;;;;;30.75;11.02;;;;;;;;;;5116458;28;20020;-74
2023/01/18 09:14:47;;;;;;;24.15;9.73;;;;;;;;;;5117650;28;20172;-74
2023/01/18 09:17:33;;;;;;;12.13;3.88;;;;;;;;;;5116613;28;20079;-73
2023/01/18 09:20:19;;;;;;;12.73;3.72;;;;;;;;;;5117852;28;20033;-74
2023/01/18 09:23:11;;;;;;;13.40;3.67;;;;;;;;;;5102697;28;20019;-74
2023/01/18 09:26:04;;;;;;;10.75;2.88;;;;;;;;;;5102571;28;20023;-73
2023/01/18 09:28:51;;;;;;;7.80;3.05;;;;;;;;;;5117626;28;20387;-73
2023/01/18 09:31:37;;;;;;;10.02;2.58;;;;;;;;;;5116690;28;20020;-73
2023/01/18 09:34:22;;;;;;;14.27;3.58;;;;;;;;;;5101367;28;20022;-72
2023/01/18 09:37:08;;;;;;;9.27;2.58;;;;;;;;;;5103845;28;20023;-74
2023/01/18 09:39:53;;;;;;;11.43;2.78;;;;;;;;;;5132300;28;20011;-73
2023/01/18 09:42:43;;;;;;;12.95;2.70;;;;;;;;;;5104932;28;20364;-73
2023/01/18 09:45:33;;;;;;;14.82;3.13;;;;;;;;;;5102007;28;20428;-72
2023/01/18 09:48:25;;;;;;;16.80;3.65;;;;;;;;;;5116959;28;20409;-72
2023/01/18 09:51:19;;;;;;;16.98;3.28;;;;;;;;;;5116692;28;20085;-73
2023/01/18 09:54:08;;;;;;;14.75;3.28;;;;;;;;;;5101209;28;20359;-72
2023/01/18 09:57:06;;;;;;;14.05;2.78;;;;;;;;;;5101864;28;20011;-73
2023/01/18 09:59:59;;;;;;;13.48;2.95;;;;;;;;;;5115941;28;20104;-73
2023/01/18 10:02:46;;;;;;;12.50;2.92;;;;;;;;;;5101646;28;20409;-73
2023/01/18 10:05:33;;;;;;;11.90;3.20;;;;;;;;;;5116198;28;20102;-74
2023/01/18 10:08:24;;;;;;;12.00;2.95;;;;;;;;;;5116409;28;20020;-74
2023/01/18 10:11:11;;;;;;;16.17;3.70;;;;;;;;;;5101720;28;20047;-73
2023/01/18 10:14:02;;;;;;;15.82;3.10;;;;;;;;;;5116798;28;20012;-74
2023/01/18 10:16:51;;;;;;;11.18;3.17;;;;;;;;;;5120578;28;20125;-72
2023/01/18 10:19:37;;;;;;;12.27;2.97;;;;;;;;;;5100761;28;20443;-74
2023/01/18 10:22:30;;;;;;;10.35;2.72;;;;;;;;;;5115448;28;20504;-74
2023/01/18 10:25:35;;;;;;;12.40;2.33;;;;;;;;;;5116965;28;20390;-74
2023/01/18 10:28:26;;;;;;;10.20;2.60;;;;;;;;;;5118254;28;20027;-73
2023/01/18 10:31:28;;;;;;;10.05;2.47;;;;;;;;;;5117638;28;20023;-73
2023/01/18 10:34:17;;;;;;;14.77;2.38;;;;;;;;;;5123401;28;20459;-73
2023/01/18 10:37:15;;;;;;;12.60;3.10;;;;;;;;;;5116317;28;20352;-72
2023/01/18 10:40:04;;;;;;;13.43;2.65;;;;;;;;;;5101645;28;20031;-74
2023/01/18 10:42:51;;;;;;;11.30;2.65;;;;;;;;;;5100800;28;20110;-74
2023/01/18 10:45:36;;;;;;;8.27;2.50;;;;;;;;;;5100717;28;20376;-72
2023/01/18 10:48:24;;;;;;;10.93;2.92;;;;;;;;;;5104461;28;20024;-73
2023/01/18 10:51:22;;;;;;;11.35;2.63;;;;;;;;;;5129725;28;20049;-74
2023/01/18 10:54:16;;;;;;;10.00;2.58;;;;;;;;;;5107905;28;20022;-74
2023/01/18 10:57:03;;;;;;;23.27;7.30;;;;;;;;;;5125263;28;20008;-74
2023/01/18 10:59:50;;;;;;;16.98;4.75;;;;;;;;;;5114784;28;20043;-73
2023/01/18 11:02:36;;;;;;;10.25;3.08;;;;;;;;;;5115025;28;20360;-74
2023/01/18 11:05:29;;;;;;;12.38;3.83;;;;;;;;;;5100136;28;20063;-74
2023/01/18 11:08:22;;;;;;;15.75;3.20;;;;;;;;;;5115259;28;20031;-74
2023/01/18 11:11:07;;;;;;;10.48;2.55;;;;;;;;;;5114474;28;20435;-74
2023/01/18 11:13:53;;;;;;;11.00;2.83;;;;;;;;;;5114507;28;20024;-75
2023/01/18 11:16:41;;;;;;;14.55;2.60;;;;;;;;;;5115569;28;20176;-73
2023/01/18 11:19:27;;;;;;;17.17;3.08;;;;;;;;;;5115240;28;20094;-74
2023/01/18 11:22:15;;;;;;;11.20;2.95;;;;;;;;;;5115367;28;20434;-73
2023/01/18 11:25:01;;;;;;;11.88;2.80;;;;;;;;;;5115257;28;20024;-73
2023/01/18 11:27:47;;;;;;;10.20;2.67;;;;;;;;;;5115746;28;20012;-74
2023/01/18 11:30:33;;;;;;;10.55;2.40;;;;;;;;;;5116789;28;20011;-75
2023/01/18 11:33:20;;;;;;;9.02;2.50;;;;;;;;;;5114549;28;20016;-73
2023/01/18 11:36:06;;;;;;;9.73;2.40;;;;;;;;;;5100119;28;20020;-74
2023/01/18 11:38:52;;;;;;;8.50;2.72;;;;;;;;;;5100854;28;20095;-73
2023/01/18 11:41:37;;;;;;;10.35;2.65;;;;;;;;;;5114487;28;20359;-74
2023/01/18 11:44:32;;;;;;;13.30;2.45;;;;;;;;;;5114713;28;20106;-74
2023/01/18 11:47:28;;;;;;;8.65;2.47;;;;;;;;;;5114114;28;20039;-73
2023/01/18 11:50:19;;;;;;;12.18;2.28;;;;;;;;;;5114662;28;20099;-73
2023/01/18 11:53:07;;;;;;;14.05;2.70;;;;;;;;;;5100178;28;20019;-74
2023/01/18 11:56:05;;;;;;;8.60;2.67;;;;;;;;;;5099955;28;20034;-73
2023/01/18 11:58:50;;;;;;;10.35;3.13;;;;;;;;;;5114628;28;20016;-73
2023/01/18 12:02:01;;;;;;;8.70;2.55;;;;;;;;;;5113359;28;20109;-73
2023/01/18 12:04:56;;;;;;;8.40;2.20;;;;;;;;;;5100634;28;20024;-75
2023/01/18 12:08:00;;;;;;;8.57;2.45;;;;;;;;;;5116755;28;20088;-73
2023/01/18 12:11:04;;;;;;;10.25;2.40;;;;;;;;;;5118139;28;20042;-73
2023/01/18 12:14:12;;;;;;;10.23;2.55;;;;;;;;;;5104217;28;20030;-74
2023/01/18 12:17:08;;;;;;;8.77;2.65;;;;;;;;;;5104272;28;20020;-73
2023/01/18 12:19:53;;;;;;;12.93;3.00;;;;;;;;;;5118330;28;20019;-72
2023/01/18 12:22:57;;;;;;;8.07;2.35;;;;;;;;;;5117366;28;20023;-73
2023/01/18 12:25:43;;;;;;;13.48;2.70;;;;;;;;;;5103985;28;20023;-73
2023/01/18 12:28:30;;;;;;;8.77;2.13;;;;;;;;;;5117598;28;20011;-72
2023/01/18 12:31:25;;;;;;;8.13;2.58;;;;;;;;;;5103511;28;20345;-72
2023/01/18 12:34:20;;;;;;;8.85;2.75;;;;;;;;;;5116682;28;20011;-73
2023/01/18 12:37:24;;;;;;;8.52;2.20;;;;;;;;;;5102479;28;20080;-73
2023/01/18 12:40:16;;;;;;;10.57;2.40;;;;;;;;;;5116736;28;20359;-73
2023/01/18 12:43:08;;;;;;;6.70;2.70;;;;;;;;;;5117448;28;20102;-73
2023/01/18 12:46:01;;;;;;;6.95;2.33;;;;;;;;;;5117524;28;20333;-73
2023/01/18 12:48:51;;;;;;;10.18;2.80;;;;;;;;;;5117240;28;20058;-72
2023/01/18 12:51:37;;;;;;;9.57;2.80;;;;;;;;;;5117228;28;20015;-73
2023/01/18 12:54:26;;;;;;;10.48;2.85;;;;;;;;;;5117078;28;20098;-73
2023/01/18 12:57:12;;;;;;;11.40;2.72;;;;;;;;;;5117901;28;20023;-72
2023/01/18 13:00:08;;;;;;;10.30;2.83;;;;;;;;;;5116658;28;20103;-74
2023/01/18 13:02:55;;;;;;;11.13;2.42;;;;;;;;;;5102851;28;20123;-74
2023/01/18 13:05:51;;;;;;;9.93;2.30;;;;;;;;;;5104114;28;20106;-75
2023/01/18 13:08:38;;;;;;;15.23;5.70;;;;;;;;;;5117898;28;20055;-73
2023/01/18 13:11:26;;;;;;;9.60;2.35;;;;;;;;;;5117785;28;20027;-74
2023/01/18 13:14:18;;;;;;;8.32;2.53;;;;;;;;;;5117377;28;20024;-73
2023/01/18 13:17:07;;;;;;;18.58;7.82;;;;;;;;;;5116972;28;20463;-74
2023/01/18 13:19:59;;;;;;;54.20;30.70;;;;;;;;;;5116673;28;20030;-73
2023/01/18 13:23:03;;;;;;;7.95;3.03;;;;;;;;;;5102406;28;20073;-75
2023/01/18 13:25:55;;;;;;;12.63;2.50;;;;;;;;;;5117087;28;20401;-73
2023/01/18 13:28:42;;;;;;;11.05;3.00;;;;;;;;;;5117201;28;20024;-73
2023/01/18 13:31:30;;;;;;;9.40;2.50;;;;;;;;;;5116496;28;20027;-72
2023/01/18 13:34:27;;;;;;;9.45;2.55;;;;;;;;;;5102138;28;20404;-72
2023/01/18 13:37:33;;;;;;;12.05;2.83;;;;;;;;;;5102498;28;20458;-73
2023/01/18 13:40:20;;;;;;;9.55;3.03;;;;;;;;;;5117732;27;20023;-71
2023/01/18 13:43:25;;;;;;;12.50;3.53;;;;;;;;;;5101456;28;20106;-72
2023/01/18 13:46:13;;;;;;;10.05;2.60;;;;;;;;;;5116077;28;20400;-72
2023/01/18 13:49:01;;;;;;;7.45;2.40;;;;;;;;;;5115920;28;20027;-71
2023/01/18 13:51:48;;;;;;;11.35;2.97;;;;;;;;;;5116742;28;20106;-71
2023/01/18 13:54:33;;;;;;;8.75;2.70;;;;;;;;;;5116248;28;20096;-71
2023/01/18 13:57:19;;;;;;;11.63;2.50;;;;;;;;;;5115772;28;20035;-72
2023/01/18 14:00:06;;;;;;;11.10;2.65;;;;;;;;;;5115739;28;20029;-72
2023/01/18 14:02:55;;;;;;;9.30;3.80;;;;;;;;;;5115745;28;20024;-72
2023/01/18 14:43:35;;;;;;;13.07;3.58;;;;;;;;;;5042146;22;20491;-74
2023/01/18 14:46:24;;;;;;;7.93;2.67;;;;;;;;;;5004950;28;20033;-73
2023/01/18 14:49:13;;;;;;;13.35;3.10;;;;;;;;;;5005434;28;20034;-74
2023/01/18 14:52:00;;;;;;;10.77;3.05;;;;;;;;;;5004668;28;20448;-74
2023/01/18 14:54:49;;;;;;;12.10;3.03;;;;;;;;;;4992197;28;20026;-73
2023/01/18 14:57:34;;;;;;;16.73;3.40;;;;;;;;;;4990481;28;20029;-74
2023/01/18 15:00:20;;;;;;;14.38;3.30;;;;;;;;;;4991471;28;20413;-74
2023/01/18 15:03:11;;;;;;;12.20;3.25;;;;;;;;;;5004779;28;20385;-75
2023/01/18 15:06:03;;;;;;;11.20;3.40;;;;;;;;;;4992416;28;20034;-74
2023/01/18 15:08:48;;;;;;;11.63;4.57;;;;;;;;;;4993474;28;20021;-75
2023/01/18 15:11:35;;;;;;;12.90;3.35;;;;;;;;;;4990689;28;20512;-75
2023/01/18 15:14:23;;;;;;;12.13;3.60;;;;;;;;;;4990687;28;20118;-74
2023/01/18 15:17:10;;;;;;;19.75;3.47;;;;;;;;;;4993358;28;20821;-73
2023/01/18 15:19:58;;;;;;;16.90;3.80;;;;;;;;;;5005560;28;20460;-72
2023/01/18 15:22:44;;;;;;;12.63;3.58;;;;;;;;;;4990480;28;20042;-73
2023/01/18 15:25:30;;;;;;;9.43;3.38;;;;;;;;;;5005227;28;20088;-73
2023/01/18 15:28:17;;;;;;;13.75;3.90;;;;;;;;;;5004873;28;20022;-72
2023/01/18 15:31:13;;;;;;;19.42;4.10;;;;;;;;;;4990052;28;20026;-72
2023/01/18 15:34:01;;;;;;;11.35;4.28;;;;;;;;;;4991435;28;20417;-71
2023/01/18 15:36:47;;;;;;;14.43;3.67;;;;;;;;;;4991876;28;20414;-72
2023/01/18 15:39:33;;;;;;;15.50;4.38;;;;;;;;;;5004465;28;20336;-71
2023/01/18 15:56:55;;;;;;;18.85;6.75;;;;;;;;;;5541454;23;20054;-72
2023/01/18 15:59:41;;;;;;;16.27;4.65;;;;;;;;;;4988403;28;20197;-73
2023/01/18 16:02:27;;;;;;;26.05;11.52;;;;;;;;;;4998982;28;20018;-72
2023/01/18 16:05:13;;;;;;;18.10;4.95;;;;;;;;;;4996038;28;20037;-73
2023/01/18 16:08:10;;;;;;;14.88;4.22;;;;;;;;;;4995284;28;20368;-72
2023/01/18 16:10:55;;;;;;;15.25;4.40;;;;;;;;;;5009160;28;20438;-73
2023/01/18 16:13:41;;;;;;;27.20;9.43;;;;;;;;;;5007623;28;20069;-72
2023/01/18 16:16:27;;;;;;;23.73;7.20;;;;;;;;;;4994686;28;20497;-72
2023/01/18 16:19:20;;;;;;;19.58;4.40;;;;;;;;;;4994728;28;20065;-72
2023/01/18 16:22:15;;;;;;;19.15;4.47;;;;;;;;;;5007857;28;20351;-71
2023/01/18 16:25:06;;;;;;;17.85;4.43;;;;;;;;;;5011440;28;20026;-73
2023/01/18 16:27:52;;;;;;;22.15;5.03;;;;;;;;;;5022903;28;20072;-71
2023/01/18 16:30:38;;;;;;;13.98;4.47;;;;;;;;;;5009390;28;20038;-70
2023/01/18 16:33:24;;;;;;;16.42;6.07;;;;;;;;;;5006712;28;20457;-70
2023/01/18 16:36:14;;;;;;;19.17;5.70;;;;;;;;;;4995898;28;20056;-71
2023/01/18 16:39:00;;;;;;;22.98;5.40;;;;;;;;;;5008605;28;20037;-71
2023/01/18 16:41:50;;;;;;;20.55;5.03;;;;;;;;;;5005673;28;20056;-71
2023/01/18 16:44:36;;;;;;;18.42;4.55;;;;;;;;;;5007922;28;20064;-71
2023/01/18 16:47:21;;;;;;;16.52;4.35;;;;;;;;;;5008669;28;20026;-71
2023/01/18 16:50:13;;;;;;;18.17;4.65;;;;;;;;;;5007874;28;20027;-70
2023/01/18 16:52:58;;;;;;;20.92;4.90;;;;;;;;;;5005638;28;20026;-70
2023/01/18 16:55:47;;;;;;;17.05;4.60;;;;;;;;;;5007686;28;20026;-71
2023/01/18 16:58:34;;;;;;;19.67;4.68;;;;;;;;;;5010825;28;20065;-71
2023/01/18 17:01:19;;;;;;;17.30;4.88;;;;;;;;;;5021472;28;20018;-71
2023/01/18 17:04:06;;;;;;;22.13;5.78;;;;;;;;;;5006484;28;20505;-70
2023/01/18 17:06:51;;;;;;;20.58;5.38;;;;;;;;;;5011032;28;20021;-69
2023/01/18 17:09:38;;;;;;;25.42;5.22;;;;;;;;;;5007337;28;20022;-69
2023/01/18 17:12:23;;;;;;;18.45;5.05;;;;;;;;;;5000897;28;20121;-70
2023/01/18 17:15:09;;;;;;;26.55;4.90;;;;;;;;;;5007078;28;20030;-69
2023/01/18 17:17:55;;;;;;;23.08;4.60;;;;;;;;;;5007743;28;20029;-70
2023/01/18 17:20:46;;;;;;;24.45;5.22;;;;;;;;;;5006749;28;20057;-70
2023/01/18 17:23:32;;;;;;;21.17;5.50;;;;;;;;;;5004181;28;20030;-71
2023/01/18 17:26:17;;;;;;;21.13;5.10;;;;;;;;;;5007294;28;20030;-71
2023/01/18 17:29:03;;;;;;;22.05;5.10;;;;;;;;;;5006459;28;20038;-71
2023/01/18 17:31:50;;;;;;;27.10;6.00;;;;;;;;;;5005086;28;20034;-70
2023/01/18 17:34:35;;;;;;;29.27;5.78;;;;;;;;;;5006008;28;20030;-70
2023/01/18 17:37:21;;;;;;;28.85;6.20;;;;;;;;;;5006896;28;20022;-70
2023/01/18 17:40:07;;;;;;;28.00;5.15;;;;;;;;;;5006704;28;20030;-71
2023/01/18 17:42:53;;;;;;;22.95;5.03;;;;;;;;;;4991274;28;20121;-70
2023/01/18 17:45:38;;;;;;;35.80;5.70;;;;;;;;;;4992206;28;20552;-71
2023/01/18 17:48:24;;;;;;;29.73;5.20;;;;;;;;;;5005042;28;20030;-70
2023/01/18 17:51:11;;;;;;;38.45;5.80;;;;;;;;;;5005709;28;20037;-70
2023/01/18 17:53:59;;;;;;;34.35;5.32;;;;;;;;;;5003817;28;20331;-70
2023/01/18 17:56:44;;;;;;;30.13;5.30;;;;;;;;;;5006886;28;20054;-71
2023/01/18 17:59:30;;;;;;;34.10;6.05;;;;;;;;;;5005677;28;20093;-70
2023/01/18 18:02:16;;;;;;;28.08;4.63;;;;;;;;;;5003424;28;20044;-71